sensor_id;sensor_type;location;lat;lon;timestamp;P1;durP1;ratioP1;P2;durP2;ratioP2
5811;SDS011;2932;52.400;9.558;2022-10-16T00:00:26;0.70;;;0.70;;
5811;SDS011;2932;52.400;9.558;2022-10-16T00:02:52;2.50;;;0.67;;
5811;SDS011;2932;52.400;9.558;2022-10-16T00:05:17;1.13;;;0.60;;
5811;SDS011;2932;52.400;9.558;2022-10-16T00:07:43;2.63;;;0.70;;
5811;SDS011;2932;52.400;9.558;2022-10-16T00:10:08;0.80;;;0.70;;
5811;SDS011;2932;52.400;9.558;2022-10-16T00:12:33;2.63;;;0.60;;
5811;SDS011;2932;52.400;9.558;2022-10-16T00:14:59;2.70;;;0.50;;
5811;SDS011;2932;52.400;9.558;2022-10-16T00:17:24;1.83;;;0.40;;
5811;SDS011;2932;52.400;9.558;2022-10-16T00:19:49;4.67;;;0.70;;
5811;SDS011;2932;52.400;9.558;2022-10-16T00:22:15;1.80;;;0.75;;
5811;SDS011;2932;52.400;9.558;2022-10-16T00:24:40;3.40;;;0.63;;
5811;SDS011;2932;52.400;9.558;2022-10-16T00:27:05;2.57;;;0.60;;
5811;SDS011;2932;52.400;9.558;2022-10-16T00:29:31;0.83;;;0.40;;
5811;SDS011;2932;52.400;9.558;2022-10-16T00:31:56;0.67;;;0.50;;
5811;SDS011;2932;52.400;9.558;2022-10-16T00:34:21;0.90;;;0.60;;
5811;SDS011;2932;52.400;9.558;2022-10-16T00:36:47;3.03;;;0.53;;
5811;SDS011;2932;52.400;9.558;2022-10-16T00:39:12;1.07;;;0.60;;
5811;SDS011;2932;52.400;9.558;2022-10-16T00:41:37;1.10;;;0.70;;
5811;SDS011;2932;52.400;9.558;2022-10-16T00:44:04;1.83;;;0.73;;
5811;SDS011;2932;52.400;9.558;2022-10-16T00:47:08;1.07;;;0.97;;
5811;SDS011;2932;52.400;9.558;2022-10-16T00:49:35;1.70;;;0.93;;
5811;SDS011;2932;52.400;9.558;2022-10-16T00:52:01;2.97;;;0.70;;
5811;SDS011;2932;52.400;9.558;2022-10-16T00:54:28;2.30;;;0.80;;
5811;SDS011;2932;52.400;9.558;2022-10-16T00:56:56;3.37;;;0.90;;
5811;SDS011;2932;52.400;9.558;2022-10-16T00:59:26;1.40;;;1.00;;
5811;SDS011;2932;52.400;9.558;2022-10-16T01:01:53;1.47;;;1.20;;
5811;SDS011;2932;52.400;9.558;2022-10-16T01:04:20;1.07;;;0.90;;
5811;SDS011;2932;52.400;9.558;2022-10-16T01:06:47;1.10;;;0.90;;
5811;SDS011;2932;52.400;9.558;2022-10-16T01:12:10;2.23;;;0.93;;
5811;SDS011;2932;52.400;9.558;2022-10-16T01:17:38;1.00;;;0.90;;
5811;SDS011;2932;52.400;9.558;2022-10-16T01:22:40;1.43;;;0.90;;
5811;SDS011;2932;52.400;9.558;2022-10-16T01:25:22;2.47;;;1.00;;
5811;SDS011;2932;52.400;9.558;2022-10-16T01:27:55;2.70;;;1.10;;
5811;SDS011;2932;52.400;9.558;2022-10-16T01:30:29;1.00;;;1.00;;
5811;SDS011;2932;52.400;9.558;2022-10-16T01:35:32;3.73;;;1.20;;
5811;SDS011;2932;52.400;9.558;2022-10-16T01:41:01;1.53;;;1.10;;
5811;SDS011;2932;52.400;9.558;2022-10-16T01:43:40;2.57;;;0.93;;
5811;SDS011;2932;52.400;9.558;2022-10-16T01:46:11;2.53;;;1.10;;
5811;SDS011;2932;52.400;9.558;2022-10-16T01:48:39;2.67;;;1.10;;
5811;SDS011;2932;52.400;9.558;2022-10-16T01:51:07;3.93;;;1.13;;
5811;SDS011;2932;52.400;9.558;2022-10-16T01:53:37;1.70;;;1.00;;
5811;SDS011;2932;52.400;9.558;2022-10-16T01:56:07;3.67;;;1.13;;
5811;SDS011;2932;52.400;9.558;2022-10-16T01:58:37;4.50;;;1.40;;
5811;SDS011;2932;52.400;9.558;2022-10-16T02:01:11;2.23;;;1.10;;
5811;SDS011;2932;52.400;9.558;2022-10-16T02:03:39;4.60;;;1.30;;
5811;SDS011;2932;52.400;9.558;2022-10-16T02:06:07;2.83;;;1.20;;
5811;SDS011;2932;52.400;9.558;2022-10-16T02:08:34;5.03;;;1.50;;
5811;SDS011;2932;52.400;9.558;2022-10-16T02:11:00;1.87;;;1.13;;
5811;SDS011;2932;52.400;9.558;2022-10-16T02:13:35;2.17;;;1.33;;
5811;SDS011;2932;52.400;9.558;2022-10-16T02:16:06;1.73;;;1.30;;
5811;SDS011;2932;52.400;9.558;2022-10-16T02:18:34;1.70;;;1.00;;
5811;SDS011;2932;52.400;9.558;2022-10-16T02:21:02;4.37;;;1.33;;
5811;SDS011;2932;52.400;9.558;2022-10-16T02:23:35;3.97;;;1.40;;
5811;SDS011;2932;52.400;9.558;2022-10-16T02:26:30;1.67;;;1.17;;
5811;SDS011;2932;52.400;9.558;2022-10-16T02:29:02;2.20;;;1.30;;
5811;SDS011;2932;52.400;9.558;2022-10-16T02:31:34;2.30;;;1.10;;
5811;SDS011;2932;52.400;9.558;2022-10-16T02:34:04;2.10;;;1.20;;
5811;SDS011;2932;52.400;9.558;2022-10-16T02:36:32;2.70;;;1.40;;
5811;SDS011;2932;52.400;9.558;2022-10-16T02:38:59;1.73;;;1.00;;
5811;SDS011;2932;52.400;9.558;2022-10-16T02:41:26;5.97;;;1.40;;
5811;SDS011;2932;52.400;9.558;2022-10-16T02:43:52;2.57;;;1.20;;
5811;SDS011;2932;52.400;9.558;2022-10-16T02:46:18;1.80;;;1.00;;
5811;SDS011;2932;52.400;9.558;2022-10-16T02:48:44;4.63;;;1.20;;
5811;SDS011;2932;52.400;9.558;2022-10-16T02:51:09;1.13;;;1.00;;
5811;SDS011;2932;52.400;9.558;2022-10-16T02:53:34;1.80;;;1.30;;
5811;SDS011;2932;52.400;9.558;2022-10-16T02:56:00;1.70;;;1.20;;
5811;SDS011;2932;52.400;9.558;2022-10-16T02:58:25;3.23;;;1.13;;
5811;SDS011;2932;52.400;9.558;2022-10-16T03:00:51;2.17;;;1.10;;
5811;SDS011;2932;52.400;9.558;2022-10-16T03:03:16;4.07;;;1.37;;
5811;SDS011;2932;52.400;9.558;2022-10-16T03:05:42;3.67;;;1.63;;
5811;SDS011;2932;52.400;9.558;2022-10-16T03:08:10;4.07;;;1.37;;
5811;SDS011;2932;52.400;9.558;2022-10-16T03:10:36;2.20;;;0.97;;
5811;SDS011;2932;52.400;9.558;2022-10-16T03:13:01;3.50;;;1.47;;
5811;SDS011;2932;52.400;9.558;2022-10-16T03:15:26;3.23;;;1.47;;
5811;SDS011;2932;52.400;9.558;2022-10-16T03:17:53;2.30;;;1.23;;
5811;SDS011;2932;52.400;9.558;2022-10-16T03:20:18;2.77;;;1.30;;
5811;SDS011;2932;52.400;9.558;2022-10-16T03:22:43;5.27;;;3.30;;
5811;SDS011;2932;52.400;9.558;2022-10-16T03:25:09;7.03;;;3.50;;
5811;SDS011;2932;52.400;9.558;2022-10-16T03:27:34;4.63;;;3.03;;
5811;SDS011;2932;52.400;9.558;2022-10-16T03:29:59;7.90;;;3.33;;
5811;SDS011;2932;52.400;9.558;2022-10-16T03:32:25;11.77;;;4.37;;
5811;SDS011;2932;52.400;9.558;2022-10-16T03:34:50;7.10;;;3.07;;
5811;SDS011;2932;52.400;9.558;2022-10-16T03:37:15;7.87;;;3.33;;
5811;SDS011;2932;52.400;9.558;2022-10-16T03:39:41;14.57;;;5.33;;
5811;SDS011;2932;52.400;9.558;2022-10-16T03:42:06;11.10;;;4.00;;
5811;SDS011;2932;52.400;9.558;2022-10-16T03:44:31;7.23;;;3.47;;
5811;SDS011;2932;52.400;9.558;2022-10-16T03:46:57;4.67;;;2.80;;
5811;SDS011;2932;52.400;9.558;2022-10-16T03:49:22;13.77;;;6.63;;
5811;SDS011;2932;52.400;9.558;2022-10-16T03:51:47;13.93;;;5.83;;
5811;SDS011;2932;52.400;9.558;2022-10-16T03:54:13;11.00;;;4.67;;
5811;SDS011;2932;52.400;9.558;2022-10-16T03:56:38;5.40;;;2.50;;
5811;SDS011;2932;52.400;9.558;2022-10-16T03:59:03;8.87;;;3.93;;
5811;SDS011;2932;52.400;9.558;2022-10-16T04:01:29;4.97;;;3.10;;
5811;SDS011;2932;52.400;9.558;2022-10-16T04:03:54;5.03;;;2.27;;
5811;SDS011;2932;52.400;9.558;2022-10-16T04:06:20;6.90;;;2.87;;
5811;SDS011;2932;52.400;9.558;2022-10-16T04:08:45;4.27;;;2.00;;
5811;SDS011;2932;52.400;9.558;2022-10-16T04:11:10;4.57;;;1.97;;
5811;SDS011;2932;52.400;9.558;2022-10-16T04:13:36;3.17;;;1.53;;
5811;SDS011;2932;52.400;9.558;2022-10-16T04:16:01;2.63;;;1.50;;
5811;SDS011;2932;52.400;9.558;2022-10-16T04:18:27;2.20;;;1.30;;
5811;SDS011;2932;52.400;9.558;2022-10-16T04:20:53;2.47;;;1.30;;
5811;SDS011;2932;52.400;9.558;2022-10-16T04:23:19;1.30;;;1.17;;
5811;SDS011;2932;52.400;9.558;2022-10-16T04:25:44;2.50;;;1.60;;
5811;SDS011;2932;52.400;9.558;2022-10-16T04:28:09;4.07;;;1.57;;
5811;SDS011;2932;52.400;9.558;2022-10-16T04:30:37;2.67;;;1.40;;
5811;SDS011;2932;52.400;9.558;2022-10-16T04:33:03;2.43;;;1.43;;
5811;SDS011;2932;52.400;9.558;2022-10-16T04:35:29;3.07;;;1.57;;
5811;SDS011;2932;52.400;9.558;2022-10-16T04:37:54;4.17;;;1.20;;
5811;SDS011;2932;52.400;9.558;2022-10-16T04:40:22;2.33;;;1.20;;
5811;SDS011;2932;52.400;9.558;2022-10-16T04:42:48;2.50;;;1.23;;
5811;SDS011;2932;52.400;9.558;2022-10-16T04:45:13;5.50;;;1.40;;
5811;SDS011;2932;52.400;9.558;2022-10-16T04:47:39;2.30;;;1.30;;
5811;SDS011;2932;52.400;9.558;2022-10-16T04:50:04;3.20;;;1.30;;
5811;SDS011;2932;52.400;9.558;2022-10-16T04:52:31;3.13;;;1.00;;
5811;SDS011;2932;52.400;9.558;2022-10-16T04:54:57;1.77;;;1.20;;
5811;SDS011;2932;52.400;9.558;2022-10-16T04:57:25;4.27;;;1.40;;
5811;SDS011;2932;52.400;9.558;2022-10-16T04:59:51;2.90;;;1.27;;
5811;SDS011;2932;52.400;9.558;2022-10-16T05:02:17;5.93;;;1.23;;
5811;SDS011;2932;52.400;9.558;2022-10-16T05:04:42;4.53;;;1.40;;
5811;SDS011;2932;52.400;9.558;2022-10-16T05:07:08;4.63;;;1.33;;
5811;SDS011;2932;52.400;9.558;2022-10-16T05:09:33;4.13;;;1.20;;
5811;SDS011;2932;52.400;9.558;2022-10-16T05:11:58;4.43;;;1.77;;
5811;SDS011;2932;52.400;9.558;2022-10-16T05:14:24;2.97;;;1.17;;
5811;SDS011;2932;52.400;9.558;2022-10-16T05:16:49;5.50;;;1.40;;
5811;SDS011;2932;52.400;9.558;2022-10-16T05:19:15;2.60;;;1.20;;
5811;SDS011;2932;52.400;9.558;2022-10-16T05:21:40;5.00;;;2.13;;
5811;SDS011;2932;52.400;9.558;2022-10-16T05:24:06;1.43;;;1.03;;
5811;SDS011;2932;52.400;9.558;2022-10-16T05:26:31;2.90;;;1.20;;
5811;SDS011;2932;52.400;9.558;2022-10-16T05:28:56;1.90;;;1.17;;
5811;SDS011;2932;52.400;9.558;2022-10-16T05:31:22;3.03;;;1.20;;
5811;SDS011;2932;52.400;9.558;2022-10-16T05:33:47;3.13;;;1.17;;
5811;SDS011;2932;52.400;9.558;2022-10-16T05:36:13;5.80;;;1.40;;
5811;SDS011;2932;52.400;9.558;2022-10-16T05:38:38;2.57;;;1.30;;
5811;SDS011;2932;52.400;9.558;2022-10-16T05:41:05;3.03;;;1.37;;
5811;SDS011;2932;52.400;9.558;2022-10-16T05:43:30;5.20;;;1.20;;
5811;SDS011;2932;52.400;9.558;2022-10-16T05:46:00;2.17;;;1.20;;
5811;SDS011;2932;52.400;9.558;2022-10-16T05:48:27;2.77;;;1.27;;
5811;SDS011;2932;52.400;9.558;2022-10-16T05:51:03;2.80;;;1.20;;
5811;SDS011;2932;52.400;9.558;2022-10-16T05:53:32;2.60;;;1.10;;
5811;SDS011;2932;52.400;9.558;2022-10-16T05:55:58;2.10;;;1.43;;
5811;SDS011;2932;52.400;9.558;2022-10-16T05:58:24;3.83;;;1.20;;
5811;SDS011;2932;52.400;9.558;2022-10-16T06:03:51;2.10;;;1.30;;
5811;SDS011;2932;52.400;9.558;2022-10-16T06:06:18;2.00;;;1.37;;
5811;SDS011;2932;52.400;9.558;2022-10-16T06:08:46;3.10;;;1.27;;
5811;SDS011;2932;52.400;9.558;2022-10-16T06:11:14;2.30;;;1.40;;
5811;SDS011;2932;52.400;9.558;2022-10-16T06:13:42;2.83;;;1.40;;
5811;SDS011;2932;52.400;9.558;2022-10-16T06:16:08;2.17;;;1.40;;
5811;SDS011;2932;52.400;9.558;2022-10-16T06:18:34;1.97;;;1.17;;
5811;SDS011;2932;52.400;9.558;2022-10-16T06:21:06;1.80;;;1.20;;
5811;SDS011;2932;52.400;9.558;2022-10-16T06:23:35;1.23;;;1.00;;
5811;SDS011;2932;52.400;9.558;2022-10-16T06:26:08;2.20;;;1.17;;
5811;SDS011;2932;52.400;9.558;2022-10-16T06:28:38;1.90;;;1.07;;
5811;SDS011;2932;52.400;9.558;2022-10-16T06:31:04;2.27;;;1.00;;
5811;SDS011;2932;52.400;9.558;2022-10-16T06:33:31;1.43;;;0.90;;
5811;SDS011;2932;52.400;9.558;2022-10-16T06:36:00;2.73;;;0.97;;
5811;SDS011;2932;52.400;9.558;2022-10-16T06:38:28;2.47;;;1.07;;
5811;SDS011;2932;52.400;9.558;2022-10-16T06:40:54;1.90;;;1.07;;
5811;SDS011;2932;52.400;9.558;2022-10-16T06:43:20;1.40;;;0.80;;
5811;SDS011;2932;52.400;9.558;2022-10-16T06:45:54;1.57;;;0.70;;
5811;SDS011;2932;52.400;9.558;2022-10-16T06:48:21;1.70;;;0.63;;
5811;SDS011;2932;52.400;9.558;2022-10-16T06:51:22;1.20;;;0.90;;
5811;SDS011;2932;52.400;9.558;2022-10-16T06:53:42;2.40;;;0.90;;
5811;SDS011;2932;52.400;9.558;2022-10-16T06:56:11;1.93;;;0.97;;
5811;SDS011;2932;52.400;9.558;2022-10-16T06:58:39;5.47;;;0.80;;
5811;SDS011;2932;52.400;9.558;2022-10-16T07:01:05;1.07;;;0.90;;
5811;SDS011;2932;52.400;9.558;2022-10-16T07:03:31;1.07;;;0.80;;
5811;SDS011;2932;52.400;9.558;2022-10-16T07:05:57;2.10;;;0.73;;
5811;SDS011;2932;52.400;9.558;2022-10-16T07:08:25;1.77;;;0.80;;
5811;SDS011;2932;52.400;9.558;2022-10-16T07:10:57;1.67;;;0.90;;
5811;SDS011;2932;52.400;9.558;2022-10-16T07:13:37;0.93;;;0.80;;
5811;SDS011;2932;52.400;9.558;2022-10-16T07:16:04;0.83;;;0.83;;
5811;SDS011;2932;52.400;9.558;2022-10-16T07:18:30;1.90;;;0.80;;
5811;SDS011;2932;52.400;9.558;2022-10-16T07:21:02;0.93;;;0.83;;
5811;SDS011;2932;52.400;9.558;2022-10-16T07:23:29;1.37;;;0.90;;
5811;SDS011;2932;52.400;9.558;2022-10-16T07:25:54;0.90;;;0.90;;
5811;SDS011;2932;52.400;9.558;2022-10-16T07:28:20;0.87;;;0.80;;
5811;SDS011;2932;52.400;9.558;2022-10-16T07:30:45;1.10;;;0.70;;
5811;SDS011;2932;52.400;9.558;2022-10-16T07:33:11;0.73;;;0.70;;
5811;SDS011;2932;52.400;9.558;2022-10-16T07:35:36;1.80;;;0.67;;
5811;SDS011;2932;52.400;9.558;2022-10-16T07:38:01;2.30;;;0.70;;
5811;SDS011;2932;52.400;9.558;2022-10-16T07:40:26;0.90;;;0.80;;
5811;SDS011;2932;52.400;9.558;2022-10-16T07:42:52;0.82;;;0.70;;
5811;SDS011;2932;52.400;9.558;2022-10-16T07:45:17;2.07;;;0.93;;
5811;SDS011;2932;52.400;9.558;2022-10-16T07:47:42;1.55;;;0.77;;
5811;SDS011;2932;52.400;9.558;2022-10-16T07:50:08;1.00;;;0.68;;
5811;SDS011;2932;52.400;9.558;2022-10-16T07:52:33;0.80;;;0.80;;
5811;SDS011;2932;52.400;9.558;2022-10-16T07:54:59;1.17;;;0.60;;
5811;SDS011;2932;52.400;9.558;2022-10-16T07:57:24;3.10;;;0.90;;
5811;SDS011;2932;52.400;9.558;2022-10-16T07:59:49;2.25;;;0.60;;
5811;SDS011;2932;52.400;9.558;2022-10-16T08:02:15;0.68;;;0.68;;
5811;SDS011;2932;52.400;9.558;2022-10-16T08:04:40;0.50;;;0.50;;
5811;SDS011;2932;52.400;9.558;2022-10-16T08:07:06;2.40;;;0.70;;
5811;SDS011;2932;52.400;9.558;2022-10-16T08:09:33;1.85;;;0.60;;
5811;SDS011;2932;52.400;9.558;2022-10-16T08:11:58;0.85;;;0.60;;
5811;SDS011;2932;52.400;9.558;2022-10-16T08:14:23;1.30;;;0.60;;
5811;SDS011;2932;52.400;9.558;2022-10-16T08:16:49;1.20;;;0.60;;
5811;SDS011;2932;52.400;9.558;2022-10-16T08:19:14;2.85;;;0.60;;
5811;SDS011;2932;52.400;9.558;2022-10-16T08:21:40;1.65;;;0.50;;
5811;SDS011;2932;52.400;9.558;2022-10-16T08:24:06;2.20;;;0.60;;
5811;SDS011;2932;52.400;9.558;2022-10-16T08:26:32;2.15;;;0.80;;
5811;SDS011;2932;52.400;9.558;2022-10-16T08:28:57;0.95;;;0.60;;
5811;SDS011;2932;52.400;9.558;2022-10-16T08:31:22;1.23;;;0.60;;
5811;SDS011;2932;52.400;9.558;2022-10-16T08:33:49;1.00;;;0.40;;
5811;SDS011;2932;52.400;9.558;2022-10-16T08:36:15;1.23;;;0.60;;
5811;SDS011;2932;52.400;9.558;2022-10-16T08:38:41;1.13;;;0.60;;
5811;SDS011;2932;52.400;9.558;2022-10-16T08:48:55;1.75;;;0.60;;
5811;SDS011;2932;52.400;9.558;2022-10-16T08:51:24;0.70;;;0.50;;
5811;SDS011;2932;52.400;9.558;2022-10-16T08:53:56;0.73;;;0.45;;
5811;SDS011;2932;52.400;9.558;2022-10-16T08:56:24;1.75;;;0.60;;
5811;SDS011;2932;52.400;9.558;2022-10-16T08:58:51;0.50;;;0.50;;
5811;SDS011;2932;52.400;9.558;2022-10-16T09:01:19;1.08;;;0.40;;
5811;SDS011;2932;52.400;9.558;2022-10-16T09:14:32;0.50;;;0.50;;
5811;SDS011;2932;52.400;9.558;2022-10-16T09:17:11;1.10;;;0.75;;
5811;SDS011;2932;52.400;9.558;2022-10-16T09:19:54;1.35;;;0.50;;
5811;SDS011;2932;52.400;9.558;2022-10-16T09:22:31;1.55;;;0.50;;
5811;SDS011;2932;52.400;9.558;2022-10-16T09:25:00;1.90;;;0.60;;
5811;SDS011;2932;52.400;9.558;2022-10-16T09:27:36;2.42;;;0.70;;
5811;SDS011;2932;52.400;9.558;2022-10-16T09:30:09;0.93;;;0.50;;
5811;SDS011;2932;52.400;9.558;2022-10-16T09:32:37;0.40;;;0.40;;
5811;SDS011;2932;52.400;9.558;2022-10-16T09:35:04;0.57;;;0.50;;
5811;SDS011;2932;52.400;9.558;2022-10-16T09:37:38;0.30;;;0.30;;
5811;SDS011;2932;52.400;9.558;2022-10-16T09:40:04;0.30;;;0.30;;
5811;SDS011;2932;52.400;9.558;2022-10-16T09:42:34;0.85;;;0.70;;
5811;SDS011;2932;52.400;9.558;2022-10-16T09:45:02;1.98;;;0.45;;
5811;SDS011;2932;52.400;9.558;2022-10-16T09:47:29;0.98;;;0.60;;
5811;SDS011;2932;52.400;9.558;2022-10-16T09:52:24;0.90;;;0.60;;
5811;SDS011;2932;52.400;9.558;2022-10-16T09:54:57;0.85;;;0.43;;
5811;SDS011;2932;52.400;9.558;2022-10-16T09:57:24;1.27;;;0.68;;
5811;SDS011;2932;52.400;9.558;2022-10-16T09:59:54;1.48;;;0.40;;
5811;SDS011;2932;52.400;9.558;2022-10-16T10:02:32;0.75;;;0.73;;
5811;SDS011;2932;52.400;9.558;2022-10-16T10:05:00;2.60;;;0.77;;
5811;SDS011;2932;52.400;9.558;2022-10-16T10:07:28;0.80;;;0.30;;
5811;SDS011;2932;52.400;9.558;2022-10-16T10:10:19;1.33;;;0.57;;
5811;SDS011;2932;52.400;9.558;2022-10-16T10:12:49;1.70;;;0.90;;
5811;SDS011;2932;52.400;9.558;2022-10-16T10:15:15;1.13;;;0.50;;
5811;SDS011;2932;52.400;9.558;2022-10-16T10:17:53;3.88;;;0.70;;
5811;SDS011;2932;52.400;9.558;2022-10-16T10:22:48;2.40;;;0.80;;
5811;SDS011;2932;52.400;9.558;2022-10-16T10:43:48;2.25;;;0.80;;
5811;SDS011;2932;52.400;9.558;2022-10-16T10:46:20;2.70;;;1.00;;
5811;SDS011;2932;52.400;9.558;2022-10-16T10:49:02;0.90;;;0.45;;
5811;SDS011;2932;52.400;9.558;2022-10-16T10:54:20;1.55;;;0.57;;
5811;SDS011;2932;52.400;9.558;2022-10-16T10:57:10;2.50;;;0.80;;
5811;SDS011;2932;52.400;9.558;2022-10-16T11:02:41;1.95;;;0.70;;
5811;SDS011;2932;52.400;9.558;2022-10-16T11:07:43;1.88;;;0.40;;
5811;SDS011;2932;52.400;9.558;2022-10-16T11:10:18;3.00;;;0.70;;
5811;SDS011;2932;52.400;9.558;2022-10-16T11:12:51;2.08;;;0.60;;
5811;SDS011;2932;52.400;9.558;2022-10-16T11:15:28;2.25;;;0.52;;
5811;SDS011;2932;52.400;9.558;2022-10-16T11:20:42;4.00;;;0.50;;
5811;SDS011;2932;52.400;9.558;2022-10-16T11:23:27;1.27;;;0.60;;
5811;SDS011;2932;52.400;9.558;2022-10-16T11:25:58;1.55;;;0.40;;
5811;SDS011;2932;52.400;9.558;2022-10-16T11:28:29;1.15;;;0.40;;
5811;SDS011;2932;52.400;9.558;2022-10-16T11:31:02;1.90;;;0.85;;
5811;SDS011;2932;52.400;9.558;2022-10-16T11:33:42;1.30;;;0.52;;
5811;SDS011;2932;52.400;9.558;2022-10-16T11:36:21;1.90;;;0.60;;
5811;SDS011;2932;52.400;9.558;2022-10-16T11:39:20;3.40;;;0.73;;
5811;SDS011;2932;52.400;9.558;2022-10-16T11:41:50;2.85;;;0.68;;
5811;SDS011;2932;52.400;9.558;2022-10-16T11:52:47;1.33;;;0.82;;
5811;SDS011;2932;52.400;9.558;2022-10-16T11:57:59;2.53;;;1.02;;
5811;SDS011;2932;52.400;9.558;2022-10-16T12:09:13;1.38;;;0.50;;
5811;SDS011;2932;52.400;9.558;2022-10-16T12:11:46;1.88;;;0.70;;
5811;SDS011;2932;52.400;9.558;2022-10-16T12:16:38;0.63;;;0.40;;
5811;SDS011;2932;52.400;9.558;2022-10-16T12:19:27;0.70;;;0.40;;
5811;SDS011;2932;52.400;9.558;2022-10-16T12:21:59;2.55;;;0.57;;
5811;SDS011;2932;52.400;9.558;2022-10-16T12:26:51;1.73;;;0.68;;
5811;SDS011;2932;52.400;9.558;2022-10-16T12:29:33;0.77;;;0.50;;
5811;SDS011;2932;52.400;9.558;2022-10-16T12:32:18;0.80;;;0.50;;
5811;SDS011;2932;52.400;9.558;2022-10-16T12:35:00;1.35;;;0.50;;
5811;SDS011;2932;52.400;9.558;2022-10-16T12:37:28;1.15;;;0.43;;
5811;SDS011;2932;52.400;9.558;2022-10-16T12:39:59;1.45;;;0.45;;
5811;SDS011;2932;52.400;9.558;2022-10-16T12:42:36;1.10;;;0.70;;
5811;SDS011;2932;52.400;9.558;2022-10-16T12:45:12;1.75;;;0.60;;
5811;SDS011;2932;52.400;9.558;2022-10-16T12:47:50;1.48;;;0.55;;
5811;SDS011;2932;52.400;9.558;2022-10-16T12:50:23;2.40;;;0.50;;
5811;SDS011;2932;52.400;9.558;2022-10-16T12:52:49;1.30;;;0.50;;
5811;SDS011;2932;52.400;9.558;2022-10-16T12:55:16;0.70;;;0.40;;
5811;SDS011;2932;52.400;9.558;2022-10-16T13:00:48;1.13;;;0.63;;
5811;SDS011;2932;52.400;9.558;2022-10-16T13:12:11;2.55;;;0.70;;
5811;SDS011;2932;52.400;9.558;2022-10-16T13:15:03;2.75;;;0.88;;
5811;SDS011;2932;52.400;9.558;2022-10-16T13:20:34;0.68;;;0.50;;
5811;SDS011;2932;52.400;9.558;2022-10-16T13:28:08;1.05;;;0.65;;
5811;SDS011;2932;52.400;9.558;2022-10-16T13:30:44;1.05;;;0.68;;
5811;SDS011;2932;52.400;9.558;2022-10-16T13:33:19;1.42;;;0.40;;
5811;SDS011;2932;52.400;9.558;2022-10-16T13:35:50;2.17;;;0.50;;
5811;SDS011;2932;52.400;9.558;2022-10-16T13:38:18;1.85;;;0.50;;
5811;SDS011;2932;52.400;9.558;2022-10-16T13:40:50;1.85;;;0.77;;
5811;SDS011;2932;52.400;9.558;2022-10-16T13:43:17;1.25;;;0.57;;
5811;SDS011;2932;52.400;9.558;2022-10-16T13:45:52;0.65;;;0.50;;
5811;SDS011;2932;52.400;9.558;2022-10-16T13:48:19;1.00;;;0.60;;
5811;SDS011;2932;52.400;9.558;2022-10-16T13:50:44;1.75;;;0.60;;
5811;SDS011;2932;52.400;9.558;2022-10-16T13:53:13;1.27;;;0.45;;
5811;SDS011;2932;52.400;9.558;2022-10-16T13:55:39;1.35;;;0.40;;
5811;SDS011;2932;52.400;9.558;2022-10-16T13:58:08;1.33;;;0.50;;
5811;SDS011;2932;52.400;9.558;2022-10-16T14:00:37;3.05;;;0.40;;
5811;SDS011;2932;52.400;9.558;2022-10-16T14:03:07;2.33;;;0.47;;
5811;SDS011;2932;52.400;9.558;2022-10-16T14:05:48;1.40;;;0.40;;
5811;SDS011;2932;52.400;9.558;2022-10-16T14:08:16;2.17;;;0.73;;
5811;SDS011;2932;52.400;9.558;2022-10-16T14:10:42;2.50;;;0.50;;
5811;SDS011;2932;52.400;9.558;2022-10-16T14:13:07;1.17;;;0.73;;
5811;SDS011;2932;52.400;9.558;2022-10-16T14:15:45;2.67;;;0.70;;
5811;SDS011;2932;52.400;9.558;2022-10-16T14:18:18;0.90;;;0.50;;
5811;SDS011;2932;52.400;9.558;2022-10-16T14:20:47;2.15;;;0.63;;
5811;SDS011;2932;52.400;9.558;2022-10-16T14:26:06;2.60;;;0.70;;
5811;SDS011;2932;52.400;9.558;2022-10-16T14:28:39;1.65;;;0.63;;
5811;SDS011;2932;52.400;9.558;2022-10-16T14:33:49;2.05;;;0.63;;
5811;SDS011;2932;52.400;9.558;2022-10-16T14:36:15;1.15;;;0.50;;
5811;SDS011;2932;52.400;9.558;2022-10-16T14:41:31;0.63;;;0.43;;
5811;SDS011;2932;52.400;9.558;2022-10-16T14:44:02;1.55;;;0.60;;
5811;SDS011;2932;52.400;9.558;2022-10-16T14:46:39;1.17;;;0.68;;
5811;SDS011;2932;52.400;9.558;2022-10-16T14:51:36;1.13;;;0.70;;
5811;SDS011;2932;52.400;9.558;2022-10-16T14:54:03;3.13;;;0.70;;
5811;SDS011;2932;52.400;9.558;2022-10-16T14:56:29;2.50;;;0.60;;
5811;SDS011;2932;52.400;9.558;2022-10-16T14:59:13;1.27;;;0.70;;
5811;SDS011;2932;52.400;9.558;2022-10-16T15:04:42;1.58;;;0.70;;
5811;SDS011;2932;52.400;9.558;2022-10-16T15:07:07;1.42;;;0.60;;
5811;SDS011;2932;52.400;9.558;2022-10-16T15:09:33;1.52;;;0.70;;
5811;SDS011;2932;52.400;9.558;2022-10-16T15:11:58;1.00;;;0.65;;
5811;SDS011;2932;52.400;9.558;2022-10-16T15:14:23;2.60;;;0.70;;
5811;SDS011;2932;52.400;9.558;2022-10-16T15:16:49;1.58;;;0.40;;
5811;SDS011;2932;52.400;9.558;2022-10-16T15:19:14;2.17;;;0.77;;
5811;SDS011;2932;52.400;9.558;2022-10-16T15:21:39;0.98;;;0.50;;
5811;SDS011;2932;52.400;9.558;2022-10-16T15:24:07;2.92;;;0.82;;
5811;SDS011;2932;52.400;9.558;2022-10-16T15:26:36;1.45;;;0.43;;
5811;SDS011;2932;52.400;9.558;2022-10-16T15:29:01;1.08;;;0.70;;
5811;SDS011;2932;52.400;9.558;2022-10-16T15:31:27;1.40;;;0.80;;
5811;SDS011;2932;52.400;9.558;2022-10-16T15:33:52;2.58;;;0.60;;
5811;SDS011;2932;52.400;9.558;2022-10-16T15:36:26;3.25;;;0.88;;
5811;SDS011;2932;52.400;9.558;2022-10-16T15:38:55;1.70;;;0.57;;
5811;SDS011;2932;52.400;9.558;2022-10-16T15:41:21;2.33;;;0.82;;
5811;SDS011;2932;52.400;9.558;2022-10-16T15:43:47;3.25;;;0.50;;
5811;SDS011;2932;52.400;9.558;2022-10-16T15:46:14;2.63;;;0.90;;
5811;SDS011;2932;52.400;9.558;2022-10-16T15:48:42;0.77;;;0.50;;
5811;SDS011;2932;52.400;9.558;2022-10-16T15:51:08;3.63;;;0.70;;
5811;SDS011;2932;52.400;9.558;2022-10-16T15:53:33;1.73;;;0.60;;
5811;SDS011;2932;52.400;9.558;2022-10-16T15:56:07;1.15;;;0.73;;
5811;SDS011;2932;52.400;9.558;2022-10-16T15:58:34;1.65;;;1.55;;
5811;SDS011;2932;52.400;9.558;2022-10-16T16:01:00;1.75;;;1.20;;
5811;SDS011;2932;52.400;9.558;2022-10-16T16:03:26;3.15;;;0.90;;
5811;SDS011;2932;52.400;9.558;2022-10-16T16:05:53;1.85;;;1.10;;
5811;SDS011;2932;52.400;9.558;2022-10-16T16:08:18;2.13;;;1.08;;
5811;SDS011;2932;52.400;9.558;2022-10-16T16:10:44;3.08;;;1.95;;
5811;SDS011;2932;52.400;9.558;2022-10-16T16:13:09;2.22;;;1.40;;
5811;SDS011;2932;52.400;9.558;2022-10-16T16:15:38;3.20;;;1.00;;
5811;SDS011;2932;52.400;9.558;2022-10-16T16:18:03;4.82;;;1.10;;
5811;SDS011;2932;52.400;9.558;2022-10-16T16:20:30;3.28;;;1.10;;
5811;SDS011;2932;52.400;9.558;2022-10-16T16:22:56;2.50;;;0.98;;
5811;SDS011;2932;52.400;9.558;2022-10-16T16:25:21;2.78;;;0.95;;
5811;SDS011;2932;52.400;9.558;2022-10-16T16:27:47;3.60;;;0.80;;
5811;SDS011;2932;52.400;9.558;2022-10-16T16:30:13;4.32;;;0.95;;
5811;SDS011;2932;52.400;9.558;2022-10-16T16:32:38;7.90;;;1.20;;
5811;SDS011;2932;52.400;9.558;2022-10-16T16:35:03;4.95;;;0.85;;
5811;SDS011;2932;52.400;9.558;2022-10-16T16:37:29;6.97;;;0.75;;
5811;SDS011;2932;52.400;9.558;2022-10-16T16:39:55;3.63;;;0.80;;
5811;SDS011;2932;52.400;9.558;2022-10-16T16:42:23;1.63;;;0.80;;
5811;SDS011;2932;52.400;9.558;2022-10-16T16:44:49;2.72;;;1.00;;
5811;SDS011;2932;52.400;9.558;2022-10-16T16:47:14;3.22;;;0.98;;
5811;SDS011;2932;52.400;9.558;2022-10-16T16:49:40;2.63;;;1.10;;
5811;SDS011;2932;52.400;9.558;2022-10-16T16:52:05;2.10;;;0.80;;
5811;SDS011;2932;52.400;9.558;2022-10-16T16:54:31;3.03;;;0.80;;
5811;SDS011;2932;52.400;9.558;2022-10-16T16:56:56;6.70;;;1.85;;
5811;SDS011;2932;52.400;9.558;2022-10-16T16:59:21;3.22;;;0.90;;
5811;SDS011;2932;52.400;9.558;2022-10-16T17:01:47;2.25;;;0.98;;
5811;SDS011;2932;52.400;9.558;2022-10-16T17:04:13;4.57;;;1.50;;
5811;SDS011;2932;52.400;9.558;2022-10-16T17:06:40;4.60;;;1.30;;
5811;SDS011;2932;52.400;9.558;2022-10-16T17:09:06;6.22;;;1.35;;
5811;SDS011;2932;52.400;9.558;2022-10-16T17:11:32;2.88;;;1.33;;
5811;SDS011;2932;52.400;9.558;2022-10-16T17:13:58;2.58;;;1.13;;
5811;SDS011;2932;52.400;9.558;2022-10-16T17:16:29;2.53;;;0.93;;
5811;SDS011;2932;52.400;9.558;2022-10-16T17:18:58;0.90;;;0.90;;
5811;SDS011;2932;52.400;9.558;2022-10-16T17:21:28;4.80;;;1.00;;
5811;SDS011;2932;52.400;9.558;2022-10-16T17:23:54;2.80;;;1.20;;
5811;SDS011;2932;52.400;9.558;2022-10-16T17:26:20;2.70;;;1.35;;
5811;SDS011;2932;52.400;9.558;2022-10-16T17:28:45;3.17;;;1.40;;
5811;SDS011;2932;52.400;9.558;2022-10-16T17:31:16;1.10;;;0.98;;